Time;durP1;ratioP1;P1;durP2;ratioP2;P2;SDS_P1;SDS_P2;PMS_P1;PMS_P2;Temp;Humidity;BMP_temperature;BMP_pressure;BME280_temperature;BME280_humidity;BME280_pressure;Samples;Min_cycle;Max_cycle;Signal;HPM_P1;HPM_P2
2021/05/01 00:00:02;;;;;;;28.73;18.08;;;;;;;;;;5053952;28;20041;-84
2021/05/01 00:02:28;;;;;;;26.35;16.50;;;;;;;;;;5036156;28;20069;-83
2021/05/01 00:04:54;;;;;;;25.95;16.38;;;;;;;;;;5036053;28;20037;-83
2021/05/01 00:07:20;;;;;;;28.95;17.92;;;;;;;;;;5052352;28;20045;-83
2021/05/01 00:09:46;;;;;;;28.70;17.95;;;;;;;;;;5052512;28;20060;-83
2021/05/01 00:12:12;;;;;;;26.83;16.98;;;;;;;;;;5035785;28;20090;-83
2021/05/01 00:14:39;;;;;;;31.73;17.92;;;;;;;;;;5052417;28;20040;-83
2021/05/01 00:17:05;;;;;;;25.70;16.42;;;;;;;;;;5052158;28;20029;-83
2021/05/01 00:19:31;;;;;;;28.85;16.95;;;;;;;;;;5052345;28;20037;-83
2021/05/01 00:21:57;;;;;;;26.10;15.65;;;;;;;;;;5053352;28;20043;-83
2021/05/01 00:24:23;;;;;;;26.42;16.08;;;;;;;;;;5052267;28;20119;-83
2021/05/01 00:26:49;;;;;;;28.05;17.45;;;;;;;;;;5051996;28;20563;-83
2021/05/01 00:29:16;;;;;;;28.70;16.17;;;;;;;;;;5051976;28;20041;-83
2021/05/01 00:31:42;;;;;;;28.38;16.60;;;;;;;;;;5051867;28;20044;-83
2021/05/01 00:34:08;;;;;;;26.35;16.40;;;;;;;;;;5053226;28;20037;-83
2021/05/01 00:36:34;;;;;;;25.08;15.30;;;;;;;;;;5053013;28;20048;-83
2021/05/01 00:39:00;;;;;;;26.77;16.98;;;;;;;;;;5050889;28;20059;-83
2021/05/01 00:41:27;;;;;;;26.92;16.67;;;;;;;;;;5051822;28;20116;-82
2021/05/01 00:43:53;;;;;;;25.70;16.00;;;;;;;;;;5035310;28;20502;-82
2021/05/01 00:46:19;;;;;;;29.35;16.75;;;;;;;;;;5051713;28;20076;-82
2021/05/01 00:48:45;;;;;;;30.48;17.60;;;;;;;;;;5053002;28;20107;-82
2021/05/01 00:51:11;;;;;;;28.65;18.05;;;;;;;;;;5051688;28;20530;-82
2021/05/01 00:53:38;;;;;;;28.50;17.27;;;;;;;;;;5052776;28;20531;-82
2021/05/01 00:56:04;;;;;;;31.77;17.67;;;;;;;;;;5052810;28;20434;-82
2021/05/01 00:58:30;;;;;;;28.83;17.42;;;;;;;;;;5052766;28;20051;-82
2021/05/01 01:01:16;;;;;;;28.98;17.30;;;;;;;;;;5051410;28;20103;-82
2021/05/01 01:03:42;;;;;;;28.95;17.50;;;;;;;;;;5052701;28;20112;-82
2021/05/01 01:06:09;;;;;;;27.15;16.10;;;;;;;;;;5051293;28;20167;-82
2021/05/01 01:08:35;;;;;;;28.15;17.10;;;;;;;;;;5051444;28;20494;-82
2021/05/01 01:11:01;;;;;;;26.42;16.20;;;;;;;;;;5034910;28;20045;-82
2021/05/01 01:13:27;;;;;;;31.92;17.38;;;;;;;;;;5052442;28;20120;-82
2021/05/01 01:15:53;;;;;;;30.67;17.60;;;;;;;;;;5052366;28;20033;-82
2021/05/01 01:18:19;;;;;;;30.50;17.27;;;;;;;;;;5051239;28;20044;-82
2021/05/01 01:20:45;;;;;;;26.08;16.30;;;;;;;;;;5052433;28;20037;-82
2021/05/01 01:23:11;;;;;;;29.90;18.13;;;;;;;;;;5051162;28;20068;-82
2021/05/01 01:25:37;;;;;;;27.98;16.88;;;;;;;;;;5052253;28;20037;-82
2021/05/01 01:28:03;;;;;;;29.13;17.58;;;;;;;;;;5051128;28;20073;-82
2021/05/01 01:30:31;;;;;;;29.08;17.95;;;;;;;;;;5034556;28;20052;-80
2021/05/01 01:32:58;;;;;;;28.02;16.20;;;;;;;;;;5052128;28;20041;-82
2021/05/01 01:35:24;;;;;;;27.65;17.17;;;;;;;;;;5050973;28;20459;-82
2021/05/01 01:37:50;;;;;;;28.60;17.50;;;;;;;;;;5050656;28;20049;-82
2021/05/01 01:40:17;;;;;;;26.30;16.27;;;;;;;;;;5052132;28;20044;-82
2021/05/01 01:42:43;;;;;;;26.27;16.70;;;;;;;;;;5050898;28;20033;-82
2021/05/01 01:45:10;;;;;;;27.63;16.73;;;;;;;;;;5051013;28;20032;-82
2021/05/01 01:47:36;;;;;;;25.52;16.23;;;;;;;;;;5050839;28;20033;-82
2021/05/01 01:50:02;;;;;;;27.65;16.30;;;;;;;;;;5053376;28;20041;-82
2021/05/01 01:52:29;;;;;;;24.92;15.02;;;;;;;;;;5057436;28;20166;-82
2021/05/01 01:54:55;;;;;;;23.17;15.27;;;;;;;;;;5057350;28;20068;-83
2021/05/01 01:57:21;;;;;;;21.08;13.98;;;;;;;;;;5058501;28;20480;-83
2021/05/01 01:59:47;;;;;;;27.33;16.30;;;;;;;;;;5058569;28;20041;-83
2021/05/01 02:02:13;;;;;;;23.35;15.60;;;;;;;;;;5057487;28;20033;-83
2021/05/01 02:04:39;;;;;;;26.25;16.42;;;;;;;;;;5057476;28;20036;-82
2021/05/01 02:07:05;;;;;;;24.73;15.48;;;;;;;;;;5058516;28;20530;-82
2021/05/01 02:09:31;;;;;;;22.20;14.93;;;;;;;;;;5057224;28;20045;-82
2021/05/01 02:11:57;;;;;;;28.30;16.58;;;;;;;;;;5040726;28;20041;-83
2021/05/01 02:14:23;;;;;;;24.88;15.63;;;;;;;;;;5057289;28;20040;-85
2021/05/01 02:16:49;;;;;;;29.17;16.65;;;;;;;;;;5057223;28;20055;-82
2021/05/01 02:19:15;;;;;;;27.88;16.33;;;;;;;;;;5040798;28;20103;-82
2021/05/01 02:21:41;;;;;;;25.38;16.00;;;;;;;;;;5057312;28;20045;-82
2021/05/01 02:24:07;;;;;;;28.15;17.27;;;;;;;;;;5058415;28;20089;-82
2021/05/01 02:26:33;;;;;;;26.05;16.70;;;;;;;;;;5057302;28;20094;-82
2021/05/01 02:29:00;;;;;;;27.20;16.15;;;;;;;;;;5058256;28;20400;-82
2021/05/01 02:31:28;;;;;;;27.85;17.67;;;;;;;;;;5057128;28;20094;-82
2021/05/01 02:33:54;;;;;;;27.92;15.55;;;;;;;;;;5057082;28;20037;-82
2021/05/01 02:36:20;;;;;;;26.88;17.42;;;;;;;;;;5058197;28;20036;-82
2021/05/01 02:38:46;;;;;;;31.42;18.73;;;;;;;;;;5056712;28;20085;-82
2021/05/01 02:41:12;;;;;;;32.15;19.52;;;;;;;;;;5057073;28;20150;-82
2021/05/01 02:43:38;;;;;;;32.85;17.63;;;;;;;;;;5058355;28;20563;-82
2021/05/01 02:46:04;;;;;;;26.75;16.90;;;;;;;;;;5056932;28;20033;-81
2021/05/01 02:48:30;;;;;;;28.80;17.00;;;;;;;;;;5056898;28;20488;-82
2021/05/01 02:50:56;;;;;;;29.08;17.20;;;;;;;;;;5056946;28;20041;-82
2021/05/01 02:53:22;;;;;;;29.92;17.90;;;;;;;;;;5056833;28;20396;-82
2021/05/01 02:55:49;;;;;;;30.83;17.55;;;;;;;;;;5058109;28;20037;-83
2021/05/01 02:58:15;;;;;;;30.70;17.55;;;;;;;;;;5057968;28;20041;-83
2021/05/01 03:00:41;;;;;;;27.42;16.63;;;;;;;;;;5056680;28;20063;-82
2021/05/01 03:03:07;;;;;;;30.05;17.50;;;;;;;;;;5052857;28;20128;-81
2021/05/01 03:05:33;;;;;;;25.52;16.40;;;;;;;;;;5054874;28;20041;-82
2021/05/01 03:07:59;;;;;;;27.00;16.20;;;;;;;;;;5053412;28;20545;-82
2021/05/01 03:10:25;;;;;;;26.52;16.25;;;;;;;;;;5053676;28;20049;-82
2021/05/01 03:12:52;;;;;;;29.90;17.75;;;;;;;;;;5036936;28;20127;-82
2021/05/01 03:15:18;;;;;;;24.70;15.32;;;;;;;;;;5036980;28;20111;-82
2021/05/01 03:17:45;;;;;;;23.80;14.90;;;;;;;;;;5053358;28;20048;-81
2021/05/01 03:20:11;;;;;;;22.25;14.23;;;;;;;;;;5054612;28;20041;-82
2021/05/01 03:22:38;;;;;;;22.80;14.18;;;;;;;;;;5054652;28;20076;-81
2021/05/01 03:25:04;;;;;;;22.38;14.15;;;;;;;;;;5053372;28;20112;-81
2021/05/01 03:27:31;;;;;;;23.55;14.30;;;;;;;;;;5054287;28;20041;-81
2021/05/01 03:29:57;;;;;;;19.58;12.48;;;;;;;;;;5053164;28;20077;-81
2021/05/01 03:32:23;;;;;;;19.45;12.40;;;;;;;;;;5054348;28;20044;-81
2021/05/01 03:34:49;;;;;;;19.92;12.90;;;;;;;;;;5053085;28;20041;-81
2021/05/01 03:37:15;;;;;;;20.23;13.07;;;;;;;;;;5052715;28;20396;-82
2021/05/01 03:39:42;;;;;;;25.98;14.05;;;;;;;;;;5053197;28;20061;-81
2021/05/01 03:42:08;;;;;;;32.63;15.57;;;;;;;;;;5054251;28;20041;-82
2021/05/01 03:44:34;;;;;;;31.85;15.48;;;;;;;;;;5054064;28;20045;-81
2021/05/01 03:47:00;;;;;;;42.88;16.98;;;;;;;;;;5036446;28;20489;-80
2021/05/01 03:49:26;;;;;;;70.30;18.75;;;;;;;;;;5052793;28;20094;-81
2021/05/01 03:51:52;;;;;;;56.10;18.20;;;;;;;;;;5052825;28;20051;-82
2021/05/01 03:54:18;;;;;;;61.78;17.75;;;;;;;;;;5053944;28;20434;-81
2021/05/01 03:56:44;;;;;;;107.90;20.95;;;;;;;;;;5036236;28;20037;-81
2021/05/01 03:59:11;;;;;;;95.95;17.98;;;;;;;;;;5036195;28;20055;-81
2021/05/01 04:01:37;;;;;;;92.28;20.55;;;;;;;;;;5053833;28;20033;-81
2021/05/01 04:04:03;;;;;;;91.30;18.50;;;;;;;;;;5036113;28;20359;-82
2021/05/01 04:06:29;;;;;;;85.00;18.45;;;;;;;;;;5053737;28;20036;-81
2021/05/01 04:08:56;;;;;;;57.97;16.85;;;;;;;;;;5052407;28;20041;-82
2021/05/01 04:11:22;;;;;;;45.85;15.70;;;;;;;;;;5052506;28;20079;-82
2021/05/01 04:13:48;;;;;;;50.00;16.77;;;;;;;;;;5035658;28;20092;-82
2021/05/01 04:16:14;;;;;;;45.85;16.92;;;;;;;;;;5052305;28;20395;-83
2021/05/01 04:18:40;;;;;;;47.40;17.38;;;;;;;;;;5053441;28;20404;-83
2021/05/01 04:21:07;;;;;;;35.08;16.52;;;;;;;;;;5052161;28;20048;-82
2021/05/01 04:23:33;;;;;;;36.55;17.33;;;;;;;;;;5053350;28;20037;-83
2021/05/01 04:25:59;;;;;;;34.53;17.17;;;;;;;;;;5053290;28;20114;-82
2021/05/01 04:28:25;;;;;;;39.88;18.67;;;;;;;;;;5052032;28;20477;-82
2021/05/01 04:30:52;;;;;;;31.95;17.05;;;;;;;;;;5053223;28;20037;-82
2021/05/01 04:33:18;;;;;;;35.58;17.55;;;;;;;;;;5051896;28;20044;-82
2021/05/01 04:35:44;;;;;;;31.95;17.83;;;;;;;;;;5035388;28;20480;-81
2021/05/01 04:38:10;;;;;;;32.45;17.45;;;;;;;;;;5052957;28;20496;-81
2021/05/01 04:40:36;;;;;;;27.90;15.18;;;;;;;;;;5051891;28;20037;-81
2021/05/01 04:43:05;;;;;;;52.67;18.27;;;;;;;;;;5053009;28;20033;-80
2021/05/01 04:45:31;;;;;;;36.25;18.02;;;;;;;;;;5035619;28;20064;-81
2021/05/01 04:47:57;;;;;;;32.85;17.70;;;;;;;;;;5051535;28;20045;-81
2021/05/01 04:50:23;;;;;;;37.10;18.15;;;;;;;;;;5052996;28;20122;-81
2021/05/01 04:52:49;;;;;;;34.33;18.30;;;;;;;;;;5051675;28;20033;-82
2021/05/01 04:55:16;;;;;;;34.38;19.30;;;;;;;;;;5035005;28;20037;-82
2021/05/01 04:57:43;;;;;;;29.83;17.88;;;;;;;;;;5035205;28;20136;-81
2021/05/01 05:00:09;;;;;;;34.45;18.98;;;;;;;;;;5052692;28;20063;-81
2021/05/01 05:02:35;;;;;;;33.25;18.75;;;;;;;;;;5051418;28;20486;-81
2021/05/01 05:05:02;;;;;;;34.90;19.35;;;;;;;;;;5051487;28;20120;-81
2021/05/01 05:07:28;;;;;;;34.15;18.92;;;;;;;;;;5051252;28;20183;-81
2021/05/01 05:09:54;;;;;;;33.47;19.08;;;;;;;;;;5052548;28;20041;-82
2021/05/01 05:12:20;;;;;;;32.30;17.95;;;;;;;;;;5051294;28;20116;-82
2021/05/01 05:14:46;;;;;;;37.60;20.90;;;;;;;;;;5034710;28;20393;-82
2021/05/01 05:17:12;;;;;;;44.78;22.48;;;;;;;;;;5034839;28;20128;-82
2021/05/01 05:19:39;;;;;;;47.22;23.58;;;;;;;;;;5052402;28;20064;-82
2021/05/01 05:22:05;;;;;;;46.22;24.65;;;;;;;;;;5051174;28;20120;-81
2021/05/01 05:24:31;;;;;;;42.53;22.25;;;;;;;;;;5051865;28;20036;-82
2021/05/01 05:26:57;;;;;;;45.35;23.92;;;;;;;;;;5050941;28;20178;-82
2021/05/01 05:29:23;;;;;;;43.20;22.20;;;;;;;;;;5034387;28;20492;-82
2021/05/01 05:31:49;;;;;;;45.75;24.50;;;;;;;;;;5051051;28;20127;-82
2021/05/01 05:34:17;;;;;;;51.95;26.27;;;;;;;;;;5051155;28;20124;-82
2021/05/01 05:36:43;;;;;;;50.28;24.88;;;;;;;;;;5052139;28;20033;-82
2021/05/01 05:39:09;;;;;;;35.50;19.77;;;;;;;;;;5050716;28;20151;-82
2021/05/01 05:41:35;;;;;;;40.20;21.40;;;;;;;;;;5050918;28;20029;-81
2021/05/01 05:44:01;;;;;;;42.65;23.17;;;;;;;;;;5050722;28;20036;-82
2021/05/01 05:46:27;;;;;;;39.22;21.60;;;;;;;;;;5050789;28;20033;-81
2021/05/01 05:48:53;;;;;;;34.83;19.90;;;;;;;;;;5034373;28;20056;-82
2021/05/01 05:51:21;;;;;;;39.03;21.25;;;;;;;;;;5050818;28;20037;-82
2021/05/01 05:53:47;;;;;;;40.35;22.17;;;;;;;;;;5050924;28;20078;-82
2021/05/01 05:56:13;;;;;;;37.00;20.95;;;;;;;;;;5050786;28;20075;-82
2021/05/01 05:58:39;;;;;;;34.20;20.20;;;;;;;;;;5050617;28;20495;-82
2021/05/01 06:01:05;;;;;;;37.83;21.65;;;;;;;;;;5034161;28;20532;-82
2021/05/01 06:03:31;;;;;;;39.00;22.35;;;;;;;;;;5050807;28;20259;-84
2021/05/01 06:06:21;;;;;;;35.17;21.27;;;;;;;;;;5051846;28;20059;-83
2021/05/01 06:08:47;;;;;;;35.40;20.98;;;;;;;;;;5051873;28;20094;-84
2021/05/01 06:11:17;;;;;;;33.75;19.88;;;;;;;;;;5034290;28;20048;-86
2021/05/01 06:13:43;;;;;;;33.35;19.25;;;;;;;;;;5035031;28;20431;-83
2021/05/01 06:16:09;;;;;;;29.65;19.10;;;;;;;;;;5050475;28;20064;-85
2021/05/01 06:18:36;;;;;;;27.70;16.48;;;;;;;;;;5050574;28;20415;-83
2021/05/01 06:21:02;;;;;;;26.10;16.58;;;;;;;;;;5050513;28;20041;-82
2021/05/01 06:23:28;;;;;;;25.25;15.00;;;;;;;;;;5034070;28;20048;-82
2021/05/01 06:25:55;;;;;;;27.08;16.08;;;;;;;;;;5050384;28;20090;-84
2021/05/01 06:28:21;;;;;;;22.15;14.07;;;;;;;;;;5033956;28;20041;-85
2021/05/01 06:30:47;;;;;;;21.02;14.05;;;;;;;;;;5050666;28;20083;-83
2021/05/01 06:33:14;;;;;;;23.15;15.00;;;;;;;;;;5050447;28;20111;-81
2021/05/01 06:35:41;;;;;;;21.15;13.77;;;;;;;;;;5051562;28;20041;-82
2021/05/01 06:38:08;;;;;;;21.35;13.10;;;;;;;;;;5052886;28;20049;-83
2021/05/01 06:40:38;;;;;;;21.33;13.57;;;;;;;;;;5037568;28;20462;-82
2021/05/01 06:43:10;;;;;;;19.67;12.80;;;;;;;;;;5054125;28;20041;-82
2021/05/01 06:45:38;;;;;;;18.92;11.88;;;;;;;;;;5054191;28;20033;-81
2021/05/01 06:48:05;;;;;;;19.20;12.25;;;;;;;;;;5053500;28;20094;-84
2021/05/01 06:50:31;;;;;;;17.65;12.50;;;;;;;;;;5069003;28;20496;-84
2021/05/01 06:52:57;;;;;;;17.42;11.98;;;;;;;;;;5053191;28;20037;-85
2021/05/01 06:55:24;;;;;;;17.30;11.90;;;;;;;;;;5036511;28;20045;-82
2021/05/01 06:57:51;;;;;;;16.10;10.65;;;;;;;;;;5053022;28;20550;-82
2021/05/01 07:00:18;;;;;;;17.42;11.65;;;;;;;;;;5037048;28;20044;-82
2021/05/01 07:02:45;;;;;;;16.23;10.93;;;;;;;;;;5053674;28;20040;-83
2021/05/01 07:05:11;;;;;;;16.15;11.07;;;;;;;;;;5037022;28;20567;-83
2021/05/01 07:07:37;;;;;;;17.63;10.07;;;;;;;;;;5053420;28;20499;-84
2021/05/01 07:10:05;;;;;;;17.70;11.63;;;;;;;;;;5037118;28;20480;-84
2021/05/01 07:12:31;;;;;;;17.70;11.13;;;;;;;;;;5052948;28;20060;-84
2021/05/01 07:14:57;;;;;;;15.90;10.88;;;;;;;;;;5037001;28;20044;-82
2021/05/01 07:17:23;;;;;;;18.20;10.98;;;;;;;;;;5054555;28;20059;-83
2021/05/01 07:19:50;;;;;;;17.50;10.93;;;;;;;;;;5054366;28;20491;-83
2021/05/01 07:22:16;;;;;;;16.80;11.40;;;;;;;;;;5054630;28;20048;-84
2021/05/01 07:24:42;;;;;;;18.05;11.85;;;;;;;;;;5053254;28;20041;-88
2021/05/01 07:27:08;;;;;;;18.48;11.88;;;;;;;;;;5036625;28;20033;-87
2021/05/01 07:29:36;;;;;;;17.13;11.27;;;;;;;;;;5053602;28;20033;-87
2021/05/01 07:32:03;;;;;;;17.65;11.93;;;;;;;;;;5036944;28;20044;-87
2021/05/01 07:34:29;;;;;;;20.05;12.20;;;;;;;;;;5036596;28;20140;-84
2021/05/01 07:36:57;;;;;;;19.60;11.65;;;;;;;;;;5036642;28;20041;-84
2021/05/01 07:39:24;;;;;;;16.63;11.50;;;;;;;;;;5052961;28;20432;-84
2021/05/01 07:41:56;;;;;;;18.02;12.00;;;;;;;;;;5053180;28;20057;-84
2021/05/01 07:44:30;;;;;;;16.65;11.68;;;;;;;;;;5037393;28;20076;-84
2021/05/01 07:46:56;;;;;;;17.60;11.45;;;;;;;;;;5036582;28;20484;-83
2021/05/01 07:49:22;;;;;;;20.55;11.45;;;;;;;;;;5049892;28;20098;-83
2021/05/01 07:51:48;;;;;;;17.00;11.35;;;;;;;;;;5032624;28;20205;-83
2021/05/01 07:54:14;;;;;;;18.08;11.75;;;;;;;;;;5032825;28;20211;-83
2021/05/01 07:56:40;;;;;;;18.73;11.50;;;;;;;;;;5032834;28;20042;-83
2021/05/01 07:59:07;;;;;;;20.00;11.70;;;;;;;;;;5033843;28;20091;-83
2021/05/01 08:01:33;;;;;;;20.55;11.57;;;;;;;;;;5032718;28;20037;-84
2021/05/01 08:03:59;;;;;;;18.08;12.48;;;;;;;;;;5032783;28;20433;-83
2021/05/01 08:06:27;;;;;;;18.85;12.50;;;;;;;;;;5032418;28;20041;-82
2021/05/01 08:08:53;;;;;;;24.70;11.80;;;;;;;;;;5032721;28;20038;-83
2021/05/01 08:11:21;;;;;;;19.38;11.70;;;;;;;;;;5049276;28;20057;-86
2021/05/01 08:13:47;;;;;;;18.50;12.50;;;;;;;;;;5032405;28;20033;-86
2021/05/01 08:16:14;;;;;;;19.90;12.50;;;;;;;;;;5033417;28;20037;-84
2021/05/01 08:18:40;;;;;;;22.85;13.32;;;;;;;;;;5032438;28;20048;-87
2021/05/01 08:21:06;;;;;;;21.60;12.93;;;;;;;;;;5032317;28;20033;-85
2021/05/01 08:23:33;;;;;;;24.00;12.82;;;;;;;;;;5032330;28;20042;-85
2021/05/01 08:26:00;;;;;;;21.02;12.70;;;;;;;;;;5032209;28;20033;-86
2021/05/01 08:28:26;;;;;;;23.30;12.25;;;;;;;;;;5032076;28;20125;-85
2021/05/01 08:30:52;;;;;;;24.98;13.48;;;;;;;;;;5032101;28;20064;-84
2021/05/01 08:33:18;;;;;;;24.15;13.23;;;;;;;;;;5048638;28;20038;-85
2021/05/01 08:35:44;;;;;;;24.88;13.75;;;;;;;;;;5032026;28;20038;-85
2021/05/01 08:38:10;;;;;;;21.98;13.02;;;;;;;;;;5031829;28;20065;-84
2021/05/01 08:40:37;;;;;;;19.70;13.07;;;;;;;;;;5031992;28;20037;-84
2021/05/01 08:43:03;;;;;;;24.25;13.63;;;;;;;;;;5031998;28;20045;-82
2021/05/01 08:45:31;;;;;;;23.60;13.82;;;;;;;;;;5032093;28;20037;-83
2021/05/01 08:47:58;;;;;;;24.42;14.60;;;;;;;;;;5031593;28;20045;-83
2021/05/01 08:50:24;;;;;;;24.58;14.73;;;;;;;;;;5032010;28;20037;-83
2021/05/01 08:52:50;;;;;;;22.15;12.60;;;;;;;;;;5033194;28;20041;-82
2021/05/01 08:55:16;;;;;;;20.48;13.02;;;;;;;;;;5031555;28;20398;-84
2021/05/01 08:57:42;;;;;;;27.75;14.98;;;;;;;;;;5031471;28;20050;-84
2021/05/01 09:00:08;;;;;;;17.90;12.02;;;;;;;;;;5031870;28;20041;-83
2021/05/01 09:02:34;;;;;;;21.83;12.85;;;;;;;;;;5048204;28;20045;-82
2021/05/01 09:05:02;;;;;;;21.85;12.75;;;;;;;;;;5031596;28;20626;-83
2021/05/01 09:07:28;;;;;;;19.65;11.68;;;;;;;;;;5047970;28;20112;-83
2021/05/01 09:09:55;;;;;;;18.13;11.48;;;;;;;;;;5031668;28;20069;-83
2021/05/01 09:12:34;;;;;;;20.65;10.93;;;;;;;;;;5031334;28;20113;-83
2021/05/01 09:15:01;;;;;;;19.00;11.63;;;;;;;;;;5047979;28;20073;-84
2021/05/01 09:17:27;;;;;;;14.30;9.80;;;;;;;;;;5032118;28;20037;-84
2021/05/01 09:19:53;;;;;;;18.02;10.75;;;;;;;;;;5052512;28;20394;-87
2021/05/01 09:22:19;;;;;;;18.48;11.50;;;;;;;;;;5050490;28;20037;-85
2021/05/01 09:24:46;;;;;;;14.25;10.63;;;;;;;;;;5034081;28;20048;-86
2021/05/01 09:27:16;;;;;;;15.57;10.15;;;;;;;;;;5050882;28;20068;-84
2021/05/01 09:29:42;;;;;;;14.60;10.35;;;;;;;;;;5051043;28;20040;-84
2021/05/01 09:32:24;;;;;;;17.33;10.23;;;;;;;;;;5034546;28;20445;-84
2021/05/01 09:34:51;;;;;;;14.85;10.02;;;;;;;;;;5034512;28;20041;-83
2021/05/01 09:37:17;;;;;;;15.25;10.82;;;;;;;;;;5050663;28;20064;-84
2021/05/01 09:39:51;;;;;;;16.85;9.82;;;;;;;;;;5034687;28;20056;-84
2021/05/01 09:42:18;;;;;;;15.02;10.45;;;;;;;;;;5051979;28;20041;-85
2021/05/01 09:44:45;;;;;;;13.00;9.50;;;;;;;;;;5050911;28;20045;-84
2021/05/01 09:47:11;;;;;;;15.68;10.27;;;;;;;;;;5051918;28;20538;-87
2021/05/01 09:49:37;;;;;;;15.95;9.98;;;;;;;;;;5034092;28;20033;-83
2021/05/01 09:52:07;;;;;;;14.13;9.02;;;;;;;;;;5050640;28;20480;-86
2021/05/01 09:54:34;;;;;;;13.88;9.48;;;;;;;;;;5034194;28;20447;-85
2021/05/01 09:57:26;;;;;;;13.80;9.05;;;;;;;;;;5051698;28;20079;-84
2021/05/01 09:59:54;;;;;;;15.05;8.82;;;;;;;;;;5050653;28;20276;-85
2021/05/01 10:02:24;;;;;;;15.27;9.38;;;;;;;;;;5050665;28;20108;-85
2021/05/01 10:05:09;;;;;;;16.80;9.45;;;;;;;;;;5050733;28;20036;-85
2021/05/01 10:07:37;;;;;;;12.10;8.75;;;;;;;;;;5034270;28;20055;-84
2021/05/01 10:10:03;;;;;;;15.00;9.23;;;;;;;;;;5050648;28;20064;-85
2021/05/01 10:12:36;;;;;;;15.85;8.77;;;;;;;;;;5055403;28;20037;-83
2021/05/01 10:15:03;;;;;;;15.27;9.02;;;;;;;;;;5038105;28;20064;-84
2021/05/01 10:17:30;;;;;;;14.65;9.45;;;;;;;;;;5055745;28;20029;-84
2021/05/01 10:20:00;;;;;;;12.60;8.68;;;;;;;;;;5055850;28;20048;-84
2021/05/01 10:22:30;;;;;;;13.02;8.57;;;;;;;;;;5055818;28;20036;-84
2021/05/01 10:24:57;;;;;;;13.38;8.23;;;;;;;;;;5054632;28;20488;-84
2021/05/01 10:27:23;;;;;;;11.95;8.20;;;;;;;;;;5037763;28;20114;-84
2021/05/01 10:30:03;;;;;;;12.20;8.00;;;;;;;;;;5037874;28;20166;-84
2021/05/01 10:32:32;;;;;;;10.57;7.70;;;;;;;;;;5054477;28;20481;-84
2021/05/01 10:34:58;;;;;;;10.27;7.82;;;;;;;;;;5038155;28;20056;-84
2021/05/01 10:37:30;;;;;;;14.02;8.13;;;;;;;;;;5037622;28;20526;-84
2021/05/01 10:39:58;;;;;;;11.60;7.47;;;;;;;;;;5054299;28;20036;-84
2021/05/01 10:42:24;;;;;;;12.00;8.13;;;;;;;;;;5053938;28;20037;-84
2021/05/01 10:44:57;;;;;;;11.60;8.82;;;;;;;;;;5054140;28;20037;-84
2021/05/01 10:47:23;;;;;;;9.98;7.50;;;;;;;;;;5054002;28;20120;-84
2021/05/01 10:49:49;;;;;;;10.25;7.88;;;;;;;;;;5055263;28;20117;-84
2021/05/01 10:52:16;;;;;;;13.43;8.20;;;;;;;;;;5037486;28;20037;-84
2021/05/01 10:55:00;;;;;;;11.15;7.57;;;;;;;;;;5055027;28;20068;-84
2021/05/01 10:57:27;;;;;;;13.45;7.93;;;;;;;;;;5055200;28;20040;-84
2021/05/01 11:00:00;;;;;;;9.50;7.72;;;;;;;;;;5053864;28;20036;-83
2021/05/01 11:02:48;;;;;;;9.50;7.30;;;;;;;;;;5053887;28;20041;-84
2021/05/01 11:05:14;;;;;;;11.95;7.45;;;;;;;;;;5054925;28;20044;-84
2021/05/01 11:07:50;;;;;;;10.23;7.07;;;;;;;;;;5054789;28;20045;-84
2021/05/01 11:10:17;;;;;;;9.88;7.43;;;;;;;;;;5053762;28;20106;-83
2021/05/01 11:12:52;;;;;;;10.00;6.97;;;;;;;;;;5053539;28;20039;-84
2021/05/01 11:15:22;;;;;;;10.20;7.20;;;;;;;;;;5053486;28;20124;-84
2021/05/01 11:17:51;;;;;;;10.52;7.38;;;;;;;;;;5053412;28;20032;-84
2021/05/01 11:20:18;;;;;;;10.20;7.13;;;;;;;;;;5054689;28;20032;-84
2021/05/01 11:22:45;;;;;;;10.15;6.95;;;;;;;;;;5035987;28;20095;-84
2021/05/01 11:25:14;;;;;;;8.73;7.20;;;;;;;;;;5036888;28;20068;-83
2021/05/01 11:27:42;;;;;;;8.40;6.70;;;;;;;;;;5036660;28;20119;-84
2021/05/01 11:30:08;;;;;;;10.07;6.93;;;;;;;;;;5036661;28;20041;-84
2021/05/01 11:32:36;;;;;;;8.88;6.70;;;;;;;;;;5053141;28;20037;-83
2021/05/01 11:35:09;;;;;;;10.43;7.25;;;;;;;;;;5053308;28;20041;-83
2021/05/01 11:37:51;;;;;;;8.75;6.45;;;;;;;;;;5052846;28;20049;-83
2021/05/01 11:40:18;;;;;;;9.63;7.18;;;;;;;;;;5054183;28;20045;-84
2021/05/01 11:42:45;;;;;;;10.52;6.40;;;;;;;;;;5053051;28;20037;-84
2021/05/01 11:45:20;;;;;;;11.68;7.50;;;;;;;;;;5036415;28;20037;-84
2021/05/01 11:47:50;;;;;;;7.40;6.20;;;;;;;;;;5054037;28;20183;-84
2021/05/01 11:50:16;;;;;;;8.65;6.20;;;;;;;;;;5052846;28;20052;-84
2021/05/01 11:52:50;;;;;;;10.52;6.70;;;;;;;;;;5052887;28;20071;-84
2021/05/01 11:55:22;;;;;;;10.07;6.30;;;;;;;;;;5052878;28;20120;-84
2021/05/01 11:57:54;;;;;;;7.55;6.40;;;;;;;;;;5052871;28;20342;-83
2021/05/01 12:00:40;;;;;;;9.00;6.13;;;;;;;;;;5053881;28;20391;-83
2021/05/01 12:03:21;;;;;;;8.25;6.47;;;;;;;;;;5054074;28;20036;-84
2021/05/01 12:06:00;;;;;;;8.10;5.90;;;;;;;;;;5053757;28;20037;-84
2021/05/01 12:08:26;;;;;;;8.35;6.30;;;;;;;;;;5036018;28;20117;-84
2021/05/01 12:10:54;;;;;;;11.05;6.40;;;;;;;;;;5053694;28;20405;-84
2021/05/01 12:13:22;;;;;;;7.47;6.05;;;;;;;;;;5035968;28;20044;-84
2021/05/01 12:15:49;;;;;;;8.50;5.78;;;;;;;;;;5035739;28;20047;-84
2021/05/01 12:18:15;;;;;;;8.88;6.55;;;;;;;;;;5052339;28;20102;-84
2021/05/01 12:20:41;;;;;;;8.88;5.88;;;;;;;;;;5052332;28;20036;-84
2021/05/01 12:23:14;;;;;;;7.47;5.85;;;;;;;;;;5052294;28;20044;-84
2021/05/01 12:25:40;;;;;;;;;;;;;;;;;;5052719;28;20086;-84
2021/05/01 12:28:07;;;;;;;7.05;5.35;;;;;;;;;;5053307;28;19924;-83
2021/05/01 12:30:39;;;;;;;6.55;5.78;;;;;;;;;;5035784;28;20476;-83
2021/05/01 12:33:20;;;;;;;6.68;5.63;;;;;;;;;;5053416;28;20201;-84
2021/05/01 12:35:47;;;;;;;7.22;5.75;;;;;;;;;;5053173;28;20041;-84
2021/05/01 12:38:13;;;;;;;8.38;6.15;;;;;;;;;;5051745;28;20103;-83
2021/05/01 12:40:40;;;;;;;8.45;6.82;;;;;;;;;;5051806;28;20044;-83
2021/05/01 12:43:25;;;;;;;11.55;8.55;;;;;;;;;;5053117;28;20503;-83
2021/05/01 12:45:51;;;;;;;11.75;8.88;;;;;;;;;;5052984;28;20068;-83
2021/05/01 12:48:43;;;;;;;11.38;8.68;;;;;;;;;;5052891;28;20126;-84
2021/05/01 12:51:10;;;;;;;9.38;7.80;;;;;;;;;;5051725;28;20130;-84
2021/05/01 12:53:36;;;;;;;11.15;8.65;;;;;;;;;;5051750;28;20048;-83
2021/05/01 12:56:25;;;;;;;12.13;9.38;;;;;;;;;;5051702;28;20033;-83
2021/05/01 12:59:10;;;;;;;11.70;8.60;;;;;;;;;;5052809;28;20041;-84
2021/05/01 13:01:36;;;;;;;12.35;9.23;;;;;;;;;;5051276;28;20049;-84
2021/05/01 13:04:28;;;;;;;12.77;8.93;;;;;;;;;;5051693;28;20039;-83
2021/05/01 13:06:54;;;;;;;14.85;9.48;;;;;;;;;;5051652;28;20170;-83
2021/05/01 13:09:21;;;;;;;14.07;10.30;;;;;;;;;;5051193;28;20161;-83
2021/05/01 13:12:05;;;;;;;11.85;9.35;;;;;;;;;;5051363;28;20404;-83
2021/05/01 13:14:31;;;;;;;13.55;9.77;;;;;;;;;;5052617;28;20105;-83
2021/05/01 13:17:02;;;;;;;13.13;9.13;;;;;;;;;;5051345;28;20048;-84
2021/05/01 13:19:32;;;;;;;13.82;8.75;;;;;;;;;;5052454;28;20041;-83
2021/05/01 13:22:05;;;;;;;11.48;8.07;;;;;;;;;;5034891;28;20040;-83
2021/05/01 13:24:36;;;;;;;11.30;8.52;;;;;;;;;;5051086;28;20040;-83
2021/05/01 13:27:02;;;;;;;12.50;8.13;;;;;;;;;;5034892;28;20052;-83
2021/05/01 13:29:29;;;;;;;10.80;7.85;;;;;;;;;;5051034;28;20064;-83
2021/05/01 13:31:55;;;;;;;9.65;7.97;;;;;;;;;;5051103;28;20068;-84
2021/05/01 13:34:21;;;;;;;9.05;7.43;;;;;;;;;;5051080;28;20404;-84
2021/05/01 13:36:47;;;;;;;9.10;6.97;;;;;;;;;;5052119;28;20037;-83
2021/05/01 13:39:17;;;;;;;8.85;6.63;;;;;;;;;;5051910;28;20084;-82
2021/05/01 13:42:01;;;;;;;8.63;6.32;;;;;;;;;;5051001;28;20048;-83
2021/05/01 13:44:37;;;;;;;13.27;6.78;;;;;;;;;;5052182;28;20477;-83
2021/05/01 13:47:04;;;;;;;9.10;5.82;;;;;;;;;;5050503;28;20040;-83
2021/05/01 13:49:30;;;;;;;9.50;6.38;;;;;;;;;;5051850;28;20082;-83
2021/05/01 13:51:56;;;;;;;8.77;6.57;;;;;;;;;;5052026;28;20120;-83
2021/05/01 13:54:25;;;;;;;7.70;6.25;;;;;;;;;;5050788;28;20103;-83
2021/05/01 13:56:51;;;;;;;9.15;5.75;;;;;;;;;;5050841;28;20044;-83
2021/05/01 13:59:26;;;;;;;8.55;6.00;;;;;;;;;;5050746;28;20381;-83
2021/05/01 14:01:52;;;;;;;8.38;5.78;;;;;;;;;;5050791;28;20208;-84
2021/05/01 14:04:34;;;;;;;6.10;5.50;;;;;;;;;;5050753;28;20037;-84
2021/05/01 14:07:04;;;;;;;6.97;5.77;;;;;;;;;;5050769;28;20694;-83
2021/05/01 14:09:31;;;;;;;7.90;5.70;;;;;;;;;;5034135;28;20040;-83
2021/05/01 14:11:57;;;;;;;11.02;5.57;;;;;;;;;;5051850;28;20283;-83
2021/05/01 14:14:24;;;;;;;8.18;5.38;;;;;;;;;;5050623;28;20075;-83
2021/05/01 14:16:57;;;;;;;6.45;5.40;;;;;;;;;;5050493;28;20148;-84
2021/05/01 14:19:24;;;;;;;7.55;5.90;;;;;;;;;;5050707;28;20381;-83
2021/05/01 14:21:53;;;;;;;7.90;5.65;;;;;;;;;;5051791;28;20079;-84
2021/05/01 14:24:20;;;;;;;6.90;5.82;;;;;;;;;;5050602;28;20037;-83
2021/05/01 14:26:50;;;;;;;8.10;6.60;;;;;;;;;;5050500;28;20434;-83